Time;durP1;ratioP1;P1;durP2;ratioP2;P2;SDS_P1;SDS_P2;PMS_P1;PMS_P2;Temp;Humidity;BMP_temperature;BMP_pressure;BME280_temperature;BME280_humidity;BME280_pressure;Samples;Min_cycle;Max_cycle;Signal;HPM_P1;HPM_P2
2022/01/26 00:07:04;;;;;;;16.48;13.35;;;20.90;53.70;;;;;;4935856;28;86255;-85
2022/01/26 00:09:30;;;;;;;19.58;13.98;;;20.90;53.50;;;;;;4936114;28;86502;-88
2022/01/26 00:11:56;;;;;;;17.17;13.95;;;20.90;53.50;;;;;;4935405;28;85966;-87
2022/01/26 00:14:24;;;;;;;15.63;12.65;;;20.90;53.60;;;;;;4935057;28;85651;-85
2022/01/26 00:16:59;;;;;;;15.40;13.68;;;20.90;53.50;;;;;;4936464;28;86594;-89
2022/01/26 00:19:32;;;;;;;14.48;12.55;;;20.90;53.60;;;;;;4933546;28;89476;-87
2022/01/26 00:21:58;;;;;;;18.65;14.27;;;20.80;53.60;;;;;;4936664;28;86045;-86
2022/01/26 00:27:09;;;;;;;15.98;13.63;;;20.80;53.40;;;;;;4935579;28;86800;-87
2022/01/26 00:29:36;;;;;;;15.85;13.27;;;20.80;53.40;;;;;;4934679;28;87248;-85
2022/01/26 00:40:34;;;;;;;14.57;12.73;;;20.80;53.30;;;;;;4934428;28;85831;-88
2022/01/26 00:43:26;;;;;;;16.35;13.80;;;20.80;53.30;;;;;;4935492;28;85937;-89
2022/01/26 00:45:56;;;;;;;14.25;12.68;;;20.80;53.20;;;;;;4949843;28;86443;-86
2022/01/26 00:48:23;;;;;;;16.85;13.65;;;20.80;53.20;;;;;;4935813;28;86848;-85
2022/01/26 00:50:51;;;;;;;16.70;13.73;;;20.80;53.10;;;;;;4950353;28;88760;-88
2022/01/26 00:53:20;;;;;;;16.40;13.68;;;20.70;52.90;;;;;;4934678;28;86599;-86
2022/01/26 00:55:46;;;;;;;18.17;13.38;;;20.70;53.00;;;;;;4935058;28;86515;-87
2022/01/26 00:58:11;;;;;;;15.32;13.25;;;20.70;53.20;;;;;;4935090;28;87869;-87
2022/01/26 01:00:37;;;;;;;15.57;13.32;;;20.70;53.00;;;;;;4935419;28;85607;-86
2022/01/26 01:03:02;;;;;;;15.38;13.15;;;20.70;53.20;;;;;;4935120;28;85954;-88
2022/01/26 01:05:48;;;;;;;15.45;13.38;;;20.70;53.20;;;;;;4935166;28;85612;-88
2022/01/26 01:08:17;;;;;;;15.63;13.68;;;20.70;53.10;;;;;;4933293;28;88284;-87
2022/01/26 01:10:45;;;;;;;15.40;13.55;;;20.70;53.00;;;;;;4935076;28;85894;-85
2022/01/26 01:13:16;;;;;;;16.88;13.48;;;20.70;53.00;;;;;;4949517;28;86249;-86
2022/01/26 01:15:42;;;;;;;16.40;14.00;;;20.70;52.90;;;;;;4934764;28;86738;-87
2022/01/26 01:18:15;;;;;;;16.35;13.50;;;20.70;52.80;;;;;;4934709;28;86894;-88
2022/01/26 01:34:05;;;;;;;15.65;13.95;;;20.60;52.70;;;;;;4933608;28;86854;-85
2022/01/26 01:36:35;;;;;;;16.92;13.52;;;20.60;52.70;;;;;;4934474;28;86356;-85
2022/01/26 01:39:00;;;;;;;16.08;13.27;;;20.60;52.70;;;;;;4934102;28;87418;-85
2022/01/26 01:41:26;;;;;;;14.85;13.15;;;20.60;52.70;;;;;;4934641;28;86563;-81
2022/01/26 01:43:52;;;;;;;15.15;13.15;;;20.60;52.60;;;;;;4949305;28;86660;-85
2022/01/26 01:46:17;;;;;;;15.98;13.93;;;20.60;52.50;;;;;;4934015;28;86367;-88
2022/01/26 01:48:43;;;;;;;16.27;14.07;;;20.60;52.50;;;;;;4931238;28;89337;-87
2022/01/26 01:51:11;;;;;;;16.52;13.20;;;20.60;52.60;;;;;;4933565;28;86762;-85
2022/01/26 01:53:40;;;;;;;15.33;13.33;;;20.60;52.60;;;;;;4933413;28;86303;-84
2022/01/26 01:56:09;;;;;;;15.07;13.07;;;20.60;52.40;;;;;;4934411;28;85870;-87
2022/01/26 01:58:36;;;;;;;16.92;13.90;;;20.60;52.30;;;;;;4934079;28;86360;-85
2022/01/26 02:01:03;;;;;;;14.45;12.68;;;20.60;52.40;;;;;;4933940;28;85606;-87
2022/01/26 02:03:29;;;;;;;14.98;13.30;;;20.50;52.40;;;;;;4931710;28;86128;-85
2022/01/26 02:05:54;;;;;;;14.98;13.30;;;20.50;52.30;;;;;;4933445;28;86110;-86
2022/01/26 02:08:20;;;;;;;15.35;13.23;;;20.50;52.30;;;;;;4933681;28;86481;-83
2022/01/26 02:10:46;;;;;;;14.30;12.80;;;20.50;52.30;;;;;;4933738;28;86458;-86
2022/01/26 02:13:25;;;;;;;15.70;13.73;;;20.50;52.20;;;;;;4934169;28;86217;-87
2022/01/26 02:56:26;;;;;;;15.77;13.20;;;20.40;51.90;;;;;;4933686;28;86267;-83
2022/01/26 03:04:39;;;;;;;16.17;13.88;;;20.40;51.70;;;;;;4935676;28;86408;-85
2022/01/26 03:07:05;;;;;;;15.57;13.98;;;20.40;51.70;;;;;;4935520;28;85769;-81
2022/01/26 03:09:37;;;;;;;15.73;13.70;;;20.40;51.70;;;;;;4936293;28;85918;-85
2022/01/26 03:12:04;;;;;;;15.45;13.82;;;20.40;51.80;;;;;;4935711;28;86470;-84
2022/01/26 03:14:48;;;;;;;17.25;15.00;;;20.30;51.80;;;;;;4936419;28;86407;-84
2022/01/26 03:19:55;;;;;;;15.82;14.02;;;20.30;51.70;;;;;;4936073;28;85729;-84
2022/01/26 03:30:33;;;;;;;17.00;14.40;;;20.30;51.70;;;;;;4936894;28;86058;-86
2022/01/26 03:35:47;;;;;;;17.73;15.00;;;20.30;51.70;;;;;;4936245;28;85710;-82
2022/01/26 03:38:23;;;;;;;16.00;13.53;;;20.30;51.70;;;;;;4935958;28;86469;-86
2022/01/26 03:40:58;;;;;;;17.67;14.98;;;20.30;51.70;;;;;;4936500;28;86298;-82
2022/01/26 03:43:23;;;;;;;15.38;13.77;;;20.30;51.60;;;;;;4934670;28;87046;-83
2022/01/26 03:45:51;;;;;;;16.55;14.35;;;20.30;51.70;;;;;;4934545;28;86375;-86
2022/01/26 03:48:17;;;;;;;16.75;14.90;;;20.30;51.60;;;;;;4934367;28;86285;-82
2022/01/26 03:50:45;;;;;;;16.88;14.80;;;20.30;51.50;;;;;;4934053;28;86563;-86
2022/01/26 03:53:10;;;;;;;17.05;14.40;;;20.20;51.50;;;;;;4935717;28;86845;-83
2022/01/26 03:55:36;;;;;;;16.00;14.20;;;20.20;51.60;;;;;;4935997;28;86811;-81
2022/01/26 03:58:02;;;;;;;16.17;14.45;;;20.20;51.30;;;;;;4936930;28;86259;-86
2022/01/26 04:00:27;;;;;;;18.13;15.93;;;20.20;51.50;;;;;;4935771;28;86520;-83
2022/01/26 04:02:53;;;;;;;17.33;15.43;;;20.20;51.50;;;;;;4935746;28;86831;-83
2022/01/26 04:05:18;;;;;;;18.85;15.48;;;20.20;51.40;;;;;;4936531;28;86554;-89
2022/01/26 04:10:24;;;;;;;16.98;15.05;;;20.20;51.50;;;;;;4936010;28;86740;-85
2022/01/26 04:12:50;;;;;;;16.75;14.95;;;20.20;51.50;;;;;;4934901;28;86360;-83
2022/01/26 04:15:26;;;;;;;18.10;15.75;;;20.20;51.50;;;;;;4935933;28;86413;-86
2022/01/26 04:17:52;;;;;;;19.58;16.45;;;20.20;51.50;;;;;;4934598;28;86477;-86
2022/01/26 04:20:18;;;;;;;18.23;16.00;;;20.20;51.40;;;;;;4935243;28;85629;-78
2022/01/26 04:23:05;;;;;;;18.13;15.55;;;20.20;51.30;;;;;;4935418;28;86608;-85
2022/01/26 04:25:30;;;;;;;17.38;15.07;;;20.20;51.20;;;;;;4934936;28;86069;-87
2022/01/26 04:28:01;;;;;;;17.60;15.38;;;20.20;51.40;;;;;;4935871;28;86330;-83
2022/01/26 04:30:26;;;;;;;17.70;15.80;;;20.10;51.40;;;;;;4935249;28;85747;-84
2022/01/26 04:32:52;;;;;;;18.15;15.45;;;20.10;51.50;;;;;;4934524;28;85786;-85
2022/01/26 04:35:17;;;;;;;20.10;16.80;;;20.10;51.40;;;;;;4932529;28;87030;-83
2022/01/26 04:40:13;;;;;;;18.73;16.08;;;20.10;51.50;;;;;;4934823;28;85680;-87
2022/01/26 04:45:08;;;;;;;17.90;16.00;;;20.10;51.20;;;;;;4934424;28;86527;-81
2022/01/26 04:47:34;;;;;;;17.42;15.57;;;20.10;51.30;;;;;;4934895;28;86437;-86
2022/01/26 04:50:00;;;;;;;19.55;16.77;;;20.10;51.30;;;;;;4924069;28;86731;-81
2022/01/26 04:52:28;;;;;;;19.52;16.27;;;20.10;51.40;;;;;;4935499;28;86780;-84
2022/01/26 04:55:02;;;;;;;18.92;16.30;;;20.10;51.40;;;;;;4933477;28;88500;-81
2022/01/26 04:57:28;;;;;;;18.90;16.65;;;20.10;51.20;;;;;;4934872;28;86647;-79
2022/01/26 04:59:53;;;;;;;18.80;16.35;;;20.10;51.40;;;;;;4933974;28;85711;-85
2022/01/26 05:02:19;;;;;;;18.63;16.63;;;20.10;51.40;;;;;;4934695;28;86203;-86
2022/01/26 05:04:45;;;;;;;20.15;17.38;;;20.00;51.30;;;;;;4934594;28;86325;-83
2022/01/26 05:07:10;;;;;;;19.35;17.25;;;20.10;51.30;;;;;;4935042;28;86272;-87
2022/01/26 05:09:36;;;;;;;18.52;16.52;;;20.00;51.00;;;;;;4934533;28;86202;-83
2022/01/26 05:12:03;;;;;;;18.58;16.42;;;20.10;51.10;;;;;;4934798;28;86599;-84
2022/01/26 05:14:29;;;;;;;21.00;17.75;;;20.00;51.10;;;;;;4935258;28;85981;-86
2022/01/26 05:16:54;;;;;;;20.25;17.08;;;20.00;51.00;;;;;;4933366;28;86889;-87
2022/01/26 05:19:20;;;;;;;20.13;17.42;;;20.00;51.10;;;;;;4934868;28;85535;-78
2022/01/26 05:21:46;;;;;;;20.25;17.48;;;20.00;51.00;;;;;;4934521;28;86442;-88
2022/01/26 05:24:11;;;;;;;20.13;17.73;;;20.00;50.90;;;;;;4933129;28;86331;-84
2022/01/26 05:26:40;;;;;;;20.75;17.48;;;20.00;50.90;;;;;;4935014;28;85609;-78
2022/01/26 05:29:07;;;;;;;19.33;16.77;;;20.00;50.90;;;;;;4933709;28;85754;-82
2022/01/26 05:31:32;;;;;;;20.60;17.83;;;20.00;50.90;;;;;;4934076;28;86339;-83
2022/01/26 05:33:58;;;;;;;19.17;17.08;;;20.00;50.90;;;;;;4934659;28;86510;-84
2022/01/26 05:36:28;;;;;;;20.65;18.42;;;20.00;50.90;;;;;;4935205;28;85975;-85
2022/01/26 05:38:57;;;;;;;21.58;17.92;;;20.00;50.90;;;;;;4933727;28;85740;-84
2022/01/26 05:41:22;;;;;;;20.63;18.33;;;20.00;51.00;;;;;;4934131;28;86278;-83
2022/01/26 05:43:48;;;;;;;20.65;17.63;;;20.00;50.90;;;;;;4934838;28;86789;-86
2022/01/26 05:46:22;;;;;;;21.73;18.05;;;20.00;51.20;;;;;;4934500;28;85664;-81
2022/01/26 05:48:49;;;;;;;22.23;18.70;;;19.90;50.90;;;;;;4934665;28;85973;-82
2022/01/26 05:51:16;;;;;;;20.83;17.98;;;19.90;50.90;;;;;;4949669;28;89118;-87
2022/01/26 05:53:41;;;;;;;21.10;18.52;;;20.00;50.90;;;;;;4934288;28;86741;-82
2022/01/26 05:56:08;;;;;;;20.00;17.90;;;20.00;50.90;;;;;;4934916;28;85545;-82
2022/01/26 05:58:34;;;;;;;21.60;18.77;;;19.90;50.90;;;;;;4933662;28;86188;-81
2022/01/26 06:01:00;;;;;;;22.35;18.58;;;20.00;51.00;;;;;;4933198;28;87430;-87
2022/01/26 06:03:28;;;;;;;22.42;18.67;;;19.90;50.80;;;;;;4934452;28;85878;-84
2022/01/26 06:05:54;;;;;;;21.17;18.38;;;19.90;50.80;;;;;;4934831;28;86360;-79
2022/01/26 06:08:21;;;;;;;21.67;18.30;;;19.90;50.80;;;;;;4925888;28;86506;-84
2022/01/26 06:10:47;;;;;;;21.15;18.05;;;19.90;50.80;;;;;;4942547;28;89581;-83
2022/01/26 06:13:20;;;;;;;21.42;18.73;;;19.90;50.90;;;;;;4934030;28;86191;-83
2022/01/26 06:15:47;;;;;;;22.73;18.80;;;19.90;50.90;;;;;;4934729;28;86175;-81
2022/01/26 06:18:12;;;;;;;21.75;19.17;;;19.90;50.90;;;;;;4933963;28;86220;-81
2022/01/26 06:20:38;;;;;;;21.92;18.45;;;19.90;50.90;;;;;;4931634;28;87652;-87
2022/01/26 06:23:04;;;;;;;22.83;19.65;;;19.90;50.80;;;;;;4933424;28;86393;-85
2022/01/26 06:25:30;;;;;;;21.20;18.40;;;19.80;50.70;;;;;;4934140;28;85872;-82
2022/01/26 06:27:58;;;;;;;23.52;19.25;;;19.90;50.70;;;;;;4933242;28;86350;-87
2022/01/26 06:30:24;;;;;;;22.23;19.77;;;19.80;50.80;;;;;;4934189;28;86573;-83
2022/01/26 06:32:50;;;;;;;20.70;18.30;;;19.90;50.80;;;;;;4933775;28;85638;-81
2022/01/26 06:35:17;;;;;;;23.65;19.65;;;19.80;50.80;;;;;;4932810;28;86730;-84
2022/01/26 06:37:43;;;;;;;22.13;19.42;;;19.80;50.70;;;;;;4933558;28;85782;-80
2022/01/26 06:40:10;;;;;;;23.30;19.40;;;19.80;50.80;;;;;;4932107;28;87020;-84
2022/01/26 06:42:51;;;;;;;23.48;20.10;;;19.80;50.80;;;;;;4933417;28;86298;-83
2022/01/26 06:45:18;;;;;;;23.27;19.38;;;19.80;50.80;;;;;;4932996;28;85998;-82
2022/01/26 06:50:29;;;;;;;23.75;19.95;;;19.80;50.70;;;;;;4933181;28;86867;-85
2022/01/26 06:52:54;;;;;;;23.08;20.15;;;19.80;50.70;;;;;;4932653;28;87452;-87
2022/01/26 06:55:21;;;;;;;21.83;19.30;;;19.80;50.80;;;;;;4932362;28;86250;-80
2022/01/26 06:57:46;;;;;;;22.83;19.65;;;19.80;50.80;;;;;;4933012;28;86691;-84
2022/01/26 07:00:13;;;;;;;24.15;20.40;;;19.80;50.80;;;;;;4932556;28;86549;-82
2022/01/26 07:02:39;;;;;;;23.38;20.55;;;19.80;50.80;;;;;;4922642;28;87098;-83
2022/01/26 07:05:10;;;;;;;21.30;18.90;;;19.80;50.80;;;;;;4932311;28;86005;-81
2022/01/26 07:07:35;;;;;;;23.83;20.23;;;19.80;50.70;;;;;;4932314;28;86382;-83
2022/01/26 07:10:02;;;;;;;24.17;21.30;;;19.80;50.80;;;;;;4932857;28;86917;-83
2022/01/26 07:12:27;;;;;;;22.65;20.15;;;19.70;50.60;;;;;;4933444;28;86525;-86
2022/01/26 07:23:09;;;;;;;23.85;20.40;;;19.80;50.70;;;;;;4931937;28;85840;-85
2022/01/26 07:25:35;;;;;;;24.08;20.20;;;19.80;50.60;;;;;;4932971;28;86082;-84
2022/01/26 07:28:03;;;;;;;22.40;19.27;;;19.70;50.60;;;;;;4932776;28;86721;-77
2022/01/26 07:30:41;;;;;;;;;;;;;;;;;;;;;
2022/01/26 07:33:06;;;;;;;23.65;20.10;;;19.80;50.50;;;;;;4932027;28;88512;-84
2022/01/26 07:35:33;;;;;;;23.05;20.08;;;19.70;50.60;;;;;;4931321;28;86690;-83
2022/01/26 07:38:01;;;;;;;24.00;21.13;;;19.70;50.50;;;;;;4931175;28;85835;-78
2022/01/26 07:40:28;;;;;;;24.05;20.13;;;19.70;50.50;;;;;;4931162;28;86045;-84
2022/01/26 07:42:53;;;;;;;23.58;20.52;;;19.70;50.50;;;;;;4932096;28;86418;-83
2022/01/26 07:45:19;;;;;;;23.73;20.52;;;19.70;50.50;;;;;;4931934;28;86109;-83
2022/01/26 07:47:46;;;;;;;23.85;20.48;;;19.70;50.50;;;;;;4934906;28;86165;-83
2022/01/26 07:50:13;;;;;;;23.27;20.33;;;19.70;50.60;;;;;;4935645;28;86815;-81
2022/01/26 07:52:41;;;;;;;25.42;20.85;;;19.70;50.40;;;;;;4932586;28;89095;-79
2022/01/26 07:55:10;;;;;;;29.38;23.42;;;19.70;50.50;;;;;;4933541;28;86349;-83
2022/01/26 07:57:35;;;;;;;27.10;22.33;;;19.70;50.00;;;;;;4932373;28;86584;-82
2022/01/26 08:00:02;;;;;;;29.30;21.20;;;19.70;50.30;;;;;;4948738;28;90233;-81
2022/01/26 08:02:28;;;;;;;28.05;23.38;;;19.70;50.50;;;;;;4936279;28;88887;-79
2022/01/26 08:04:56;;;;;;;27.98;22.25;;;19.70;50.50;;;;;;4932559;28;86571;-83
2022/01/26 08:07:29;;;;;;;25.00;20.35;;;19.80;50.90;;;;;;4934143;28;86080;-85
2022/01/26 08:09:54;;;;;;;26.55;21.13;;;19.90;51.70;;;;;;4933308;28;86584;-81
2022/01/26 08:12:21;;;;;;;29.58;22.10;;;19.90;51.30;;;;;;4934635;28;86025;-84
2022/01/26 08:14:46;;;;;;;26.73;21.63;;;20.00;51.40;;;;;;4934913;28;85725;-81
2022/01/26 08:17:15;;;;;;;27.27;21.17;;;20.00;51.60;;;;;;4934729;28;85609;-80
2022/01/26 08:19:40;;;;;;;28.02;22.65;;;20.10;51.50;;;;;;4934715;28;86509;-80
2022/01/26 08:22:06;;;;;;;26.55;21.48;;;20.10;51.30;;;;;;4935480;28;86590;-78
2022/01/26 08:24:32;;;;;;;29.42;22.02;;;20.20;51.70;;;;;;4934680;28;86337;-82
2022/01/26 08:27:05;;;;;;;28.92;22.73;;;20.20;51.20;;;;;;4934058;28;86239;-81
2022/01/26 08:29:38;;;;;;;29.13;22.42;;;20.20;50.90;;;;;;4935511;28;86778;-79
2022/01/26 08:32:04;;;;;;;30.10;21.08;;;20.20;51.00;;;;;;4934270;28;86019;-82
2022/01/26 08:34:30;;;;;;;25.58;20.65;;;20.30;50.90;;;;;;4933815;28;86175;-82
2022/01/26 08:36:56;;;;;;;27.98;21.02;;;20.30;50.90;;;;;;4929466;28;86582;-86
2022/01/26 08:39:21;;;;;;;33.15;22.25;;;20.30;51.60;;;;;;4932303;28;86780;-80
2022/01/26 08:41:50;;;;;;;28.05;21.45;;;20.30;50.70;;;;;;4932483;28;86689;-78
2022/01/26 08:44:15;;;;;;;27.67;22.83;;;20.30;50.90;;;;;;4932325;28;86339;-86
2022/01/26 08:46:42;;;;;;;25.73;20.45;;;20.30;50.50;;;;;;4931738;28;86336;-79
2022/01/26 08:49:07;;;;;;;25.10;20.35;;;20.30;51.20;;;;;;4932231;28;87363;-78
2022/01/26 08:51:34;;;;;;;23.00;19.77;;;20.30;51.30;;;;;;4931999;28;85782;-83
2022/01/26 08:54:00;;;;;;;26.90;20.25;;;20.30;51.20;;;;;;4932606;28;86547;-83
2022/01/26 08:56:26;;;;;;;46.90;23.75;;;20.30;51.10;;;;;;4932304;28;86007;-82
2022/01/26 08:58:53;;;;;;;33.40;21.23;;;20.30;50.90;;;;;;4932549;28;86472;-82
2022/01/26 09:01:20;;;;;;;28.88;20.45;;;20.30;51.70;;;;;;4932998;28;86198;-84
2022/01/26 09:03:45;;;;;;;33.40;21.08;;;20.30;51.70;;;;;;4931002;28;86403;-82
2022/01/26 09:06:12;;;;;;;68.55;26.95;;;20.30;51.80;;;;;;4932581;28;86158;-80
2022/01/26 09:08:40;;;;;;;55.00;25.60;;;20.30;51.10;;;;;;4932361;28;86488;-78
2022/01/26 09:11:06;;;;;;;34.28;17.95;;;20.30;51.10;;;;;;4879096;28;85878;-82
2022/01/26 09:13:34;;;;;;;42.75;20.38;;;20.30;52.60;;;;;;4932180;28;86722;-83
2022/01/26 09:16:02;;;;;;;40.25;20.35;;;20.30;52.40;;;;;;4932199;28;86351;-80
2022/01/26 09:19:24;;;;;;;41.15;19.45;;;20.30;52.10;;;;;;4932314;28;86204;-80
2022/01/26 09:21:13;;;;;;;47.70;23.42;;;20.30;51.00;;;;;;4934138;28;85860;-82
2022/01/26 09:23:39;;;;;;;49.75;23.52;;;20.40;50.70;;;;;;4932528;28;86174;-79
2022/01/26 09:26:04;;;;;;;40.78;20.02;;;20.40;50.90;;;;;;4932743;28;86679;-84
2022/01/26 09:28:30;;;;;;;44.88;20.10;;;20.40;51.70;;;;;;4931237;28;87186;-84
2022/01/26 09:30:56;;;;;;;36.92;20.23;;;20.40;51.40;;;;;;4932327;28;86701;-83
2022/01/26 09:33:21;;;;;;;37.05;18.58;;;20.50;51.30;;;;;;4935224;28;86372;-82
2022/01/26 09:35:48;;;;;;;31.88;17.65;;;20.50;52.10;;;;;;4933180;28;85748;-84
2022/01/26 09:38:14;;;;;;;32.78;17.92;;;20.50;51.90;;;;;;4933209;28;86353;-80
2022/01/26 09:40:39;;;;;;;34.08;17.27;;;20.50;52.10;;;;;;4933136;28;86041;-80
2022/01/26 09:43:06;;;;;;;36.65;19.75;;;20.50;51.80;;;;;;4930983;28;87253;-79
2022/01/26 09:45:34;;;;;;;47.38;22.42;;;20.50;51.70;;;;;;4932473;28;86274;-83
2022/01/26 09:48:04;;;;;;;44.28;24.30;;;20.50;51.20;;;;;;4917603;28;90695;-83
2022/01/26 09:50:30;;;;;;;;;;;20.60;51.60;;;;;;4932947;28;85958;-84
2022/01/26 09:52:57;;;;;;;49.65;24.77;;;20.60;55.40;;;;;;4924437;28;86707;-82
2022/01/26 09:55:26;;;;;;;48.65;24.85;;;20.60;50.50;;;;;;4932335;28;86558;-82
2022/01/26 09:57:58;;;;;;;50.65;27.05;;;20.60;51.00;;;;;;4933414;28;86824;-81
2022/01/26 10:00:28;;;;;;;51.60;28.55;;;20.60;51.10;;;;;;4933955;28;86620;-83
2022/01/26 10:02:59;;;;;;;48.67;26.73;;;20.50;50.30;;;;;;4933180;28;86092;-78
2022/01/26 10:05:24;;;;;;;41.17;23.38;;;20.60;51.10;;;;;;4933477;28;86709;-82
2022/01/26 10:16:16;;;;;;;52.30;27.23;;;20.60;47.10;;;;;;4936708;28;86832;-84
2022/01/26 10:18:42;;;;;;;53.88;28.80;;;20.60;47.90;;;;;;4931959;28;87208;-82
2022/01/26 10:21:09;;;;;;;46.17;27.05;;;20.60;47.40;;;;;;4931300;28;86601;-79
2022/01/26 10:23:39;;;;;;;48.33;28.90;;;20.60;47.50;;;;;;4931092;28;86286;-81
2022/01/26 10:26:06;;;;;;;51.78;26.52;;;20.60;47.50;;;;;;4931290;28;86719;-81
2022/01/26 10:28:47;;;;;;;50.92;26.92;;;20.60;47.10;;;;;;4931070;28;86653;-80
2022/01/26 10:31:22;;;;;;;43.67;24.92;;;20.60;47.40;;;;;;4931460;28;86798;-80
2022/01/26 10:33:54;;;;;;;51.22;27.10;;;20.60;47.50;;;;;;4931595;28;85929;-80
2022/01/26 10:36:19;;;;;;;49.55;28.60;;;20.60;47.90;;;;;;4931433;28;86002;-80
2022/01/26 10:39:05;;;;;;;51.00;30.73;;;20.60;48.10;;;;;;4930442;28;87081;-86
2022/01/26 10:41:30;;;;;;;54.33;31.48;;;20.60;47.50;;;;;;4923371;28;88153;-79
2022/01/26 10:43:58;;;;;;;54.08;31.45;;;20.60;47.30;;;;;;4930812;28;85644;-83
2022/01/26 10:46:38;;;;;;;;;;;;;;;;;;;;;
2022/01/26 10:54:38;;;;;;;45.88;29.10;;;20.60;46.20;;;;;;4931123;28;87112;-79
2022/01/26 10:57:14;;;;;;;41.50;26.20;;;20.60;47.20;;;;;;4931092;28;86573;-80
2022/01/26 10:59:43;;;;;;;43.00;26.40;;;20.60;47.60;;;;;;4929410;28;86440;-79
2022/01/26 11:02:10;;;;;;;42.30;24.70;;;20.60;48.60;;;;;;4929552;28;86659;-79
2022/01/26 11:04:38;;;;;;;40.55;25.70;;;20.60;49.30;;;;;;4931245;28;86248;-82
2022/01/26 11:07:07;;;;;;;37.65;24.00;;;20.70;49.60;;;;;;4931936;28;86072;-80
2022/01/26 11:09:36;;;;;;;29.83;20.80;;;20.60;50.10;;;;;;4931467;28;86903;-79
2022/01/26 11:12:03;;;;;;;32.08;20.15;;;20.70;49.90;;;;;;4922523;28;87848;-81
2022/01/26 11:14:45;;;;;;;35.80;20.17;;;20.70;50.00;;;;;;4932134;28;86403;-82
2022/01/26 11:17:25;;;;;;;29.92;19.65;;;20.70;49.90;;;;;;4931446;28;86599;-85
2022/01/26 11:19:56;;;;;;;36.00;17.15;;;20.70;50.10;;;;;;4931174;28;86853;-81
2022/01/26 11:22:27;;;;;;;29.25;18.73;;;20.80;50.40;;;;;;4934382;28;86324;-85
2022/01/26 11:24:53;;;;;;;39.00;20.88;;;20.80;50.70;;;;;;4933701;28;85756;-80
2022/01/26 11:27:19;;;;;;;33.78;20.60;;;20.80;49.60;;;;;;4935404;28;86565;-80
2022/01/26 11:29:49;;;;;;;35.22;20.13;;;20.90;50.30;;;;;;4934857;28;86157;-80
2022/01/26 11:32:30;;;;;;;36.30;20.60;;;20.90;51.00;;;;;;4935796;28;86618;-77
2022/01/26 11:34:57;;;;;;;32.17;18.35;;;20.90;50.60;;;;;;4933664;28;86064;-81
2022/01/26 11:37:58;;;;;;;32.85;19.35;;;20.90;51.10;;;;;;4934983;28;86415;-84
2022/01/26 11:46:07;;;;;;;29.38;18.27;;;20.90;52.30;;;;;;4933240;28;86037;-80
2022/01/26 11:48:33;;;;;;;26.73;17.23;;;20.90;52.50;;;;;;4933519;28;85969;-81
2022/01/26 11:51:02;;;;;;;27.58;17.80;;;20.90;53.10;;;;;;4935340;28;87338;-79
2022/01/26 11:53:28;;;;;;;34.27;17.57;;;20.90;53.20;;;;;;4935262;28;86479;-82
2022/01/26 11:56:02;;;;;;;29.73;16.90;;;20.90;53.30;;;;;;4935554;28;86407;-82
2022/01/26 11:58:47;;;;;;;29.40;17.50;;;21.00;53.30;;;;;;4934136;28;86147;-86
2022/01/26 12:01:33;;;;;;;25.73;17.38;;;20.90;53.30;;;;;;4934765;28;86848;-79
2022/01/26 12:04:05;;;;;;;31.48;17.73;;;21.00;53.90;;;;;;4934020;28;86451;-85
2022/01/26 12:06:40;;;;;;;32.92;18.88;;;21.00;52.90;;;;;;4933977;28;86437;-81
2022/01/26 12:09:07;;;;;;;37.17;18.73;;;21.00;52.40;;;;;;4933289;28;86237;-83
2022/01/26 12:11:33;;;;;;;30.45;17.92;;;21.00;52.50;;;;;;4933587;28;86361;-78
2022/01/26 12:14:00;;;;;;;30.25;17.48;;;21.00;52.70;;;;;;4925651;28;87948;-84
2022/01/26 12:16:39;;;;;;;35.47;19.42;;;21.00;52.70;;;;;;4932410;28;86872;-84
2022/01/26 12:38:30;;;;;;;35.70;17.75;;;21.10;52.90;;;;;;4934370;28;86239;-81
2022/01/26 12:41:19;;;;;;;31.52;17.25;;;21.10;52.50;;;;;;4934348;28;86425;-85
2022/01/26 12:44:11;;;;;;;27.42;16.25;;;21.00;52.80;;;;;;4934946;28;86507;-80
2022/01/26 12:46:38;;;;;;;34.75;18.30;;;21.10;53.00;;;;;;4934357;28;86086;-83
2022/01/26 12:49:08;;;;;;;27.13;16.23;;;21.10;52.90;;;;;;4934793;28;86265;-87
2022/01/26 12:51:42;;;;;;;25.85;14.57;;;21.10;53.00;;;;;;4934463;28;86393;-83
2022/01/26 12:54:07;;;;;;;25.83;15.25;;;21.10;53.20;;;;;;4934948;28;86878;-81
2022/01/26 12:56:33;;;;;;;27.90;17.17;;;21.00;53.70;;;;;;4934807;28;86282;-81
2022/01/26 12:59:09;;;;;;;33.15;18.00;;;21.10;53.10;;;;;;4933416;28;86451;-80
2022/01/26 13:01:36;;;;;;;32.90;18.35;;;21.10;53.10;;;;;;4934748;28;86359;-78
2022/01/26 13:04:04;;;;;;;38.00;21.50;;;21.10;52.70;;;;;;4935483;28;86069;-79
2022/01/26 13:06:35;;;;;;;34.42;18.92;;;21.10;52.50;;;;;;4936109;28;86865;-81
2022/01/26 13:09:17;;;;;;;41.45;18.58;;;21.00;52.90;;;;;;4934967;28;86171;-80
2022/01/26 13:11:46;;;;;;;38.05;19.42;;;21.10;53.00;;;;;;4935827;28;86489;-79
2022/01/26 13:14:21;;;;;;;38.20;18.15;;;21.10;53.70;;;;;;4935451;28;86509;-79
2022/01/26 13:20:23;;;;;;;35.45;17.42;;;21.10;53.50;;;;;;4931205;28;86303;-78
2022/01/26 13:25:52;;;;;;;43.67;18.55;;;21.20;54.00;;;;;;4936383;28;86065;-79
2022/01/26 13:36:36;;;;;;;42.35;17.20;;;21.20;54.30;;;;;;4934316;28;86263;-78
2022/01/26 13:42:13;;;;;;;40.13;17.60;;;21.20;54.20;;;;;;4933149;28;86424;-78
2022/01/26 13:47:43;;;;;;;34.03;16.65;;;21.20;53.20;;;;;;4937694;28;86646;-85
2022/01/26 13:50:23;;;;;;;43.63;16.38;;;21.20;53.80;;;;;;4930289;28;86481;-78
2022/01/26 13:53:11;;;;;;;36.50;15.60;;;21.20;54.10;;;;;;4932792;28;85868;-79
2022/01/26 14:00:55;;;;;;;36.00;19.73;;;21.20;53.20;;;;;;4932455;28;86419;-82
2022/01/26 14:03:24;;;;;;;28.95;15.48;;;21.20;51.40;;;;;;4932005;28;85648;-80
2022/01/26 14:05:50;;;;;;;33.50;16.30;;;21.20;53.30;;;;;;4931229;28;86579;-80
2022/01/26 14:08:15;;;;;;;26.25;14.95;;;21.20;53.40;;;;;;4931626;28;86720;-79
2022/01/26 14:10:44;;;;;;;39.45;17.15;;;21.20;53.60;;;;;;4932037;28;86267;-80
2022/01/26 14:13:10;;;;;;;33.15;16.20;;;21.30;52.50;;;;;;4932582;28;85942;-80
2022/01/26 14:15:43;;;;;;;33.17;14.40;;;21.30;53.20;;;;;;4927676;28;86227;-80
2022/01/26 14:20:54;;;;;;;31.73;14.43;;;21.30;52.20;;;;;;4932441;28;86178;-83
2022/01/26 14:26:07;;;;;;;31.08;16.65;;;21.30;54.20;;;;;;4933295;28;85998;-80
2022/01/26 14:28:36;;;;;;;28.45;14.80;;;21.30;54.80;;;;;;4933512;28;86235;-85
2022/01/26 14:53:32;;;;;;;31.90;16.58;;;21.30;56.60;;;;;;4936214;28;86115;-80
2022/01/26 14:55:41;;;;;;;29.92;19.55;;;21.30;56.50;;;;;;4937374;28;85784;-79
2022/01/26 15:29:58;;;;;;;26.75;14.75;;;21.30;57.60;;;;;;4937961;28;86226;-82
2022/01/26 15:33:30;;;;;;;26.60;16.52;;;21.40;56.50;;;;;;4931408;28;86147;-85
2022/01/26 15:49:19;;;;;;;38.53;19.00;;;21.40;53.50;;;;;;4931991;28;86483;-79
2022/01/26 15:51:54;;;;;;;39.08;20.30;;;21.40;54.10;;;;;;4931792;28;86631;-81
2022/01/26 15:57:25;;;;;;;27.90;14.98;;;21.40;56.20;;;;;;4931701;28;85954;-80
2022/01/26 16:21:34;;;;;;;33.40;14.05;;;21.50;55.80;;;;;;4931875;28;85844;-83
2022/01/26 18:18:00;;;;;;;20.73;13.95;;;21.50;54.40;;;;;;4886485;28;88454;-80
2022/01/26 18:49:44;;;;;;;23.42;13.20;;;21.70;54.50;;;;;;4924286;28;87332;-84
2022/01/26 18:52:21;;;;;;;21.15;13.00;;;21.70;54.50;;;;;;4927014;28;88011;-80
2022/01/26 18:54:47;;;;;;;20.52;13.77;;;21.70;54.30;;;;;;4927274;28;88475;-81
2022/01/26 18:57:12;;;;;;;19.33;13.13;;;21.70;54.40;;;;;;4927482;28;87901;-80
2022/01/26 18:59:38;;;;;;;19.05;13.20;;;21.70;54.20;;;;;;4924696;28;88098;-80
2022/01/26 19:02:05;;;;;;;24.88;13.23;;;21.70;54.20;;;;;;4927811;28;87789;-80
2022/01/26 19:04:40;;;;;;;22.77;12.93;;;21.70;54.10;;;;;;4928185;28;87516;-86
2022/01/26 19:07:06;;;;;;;23.55;14.13;;;21.70;54.30;;;;;;4927771;28;87192;-81
2022/01/26 19:09:37;;;;;;;21.90;14.10;;;21.70;54.10;;;;;;4927688;28;87424;-86
2022/01/26 19:12:06;;;;;;;18.65;13.20;;;21.60;53.70;;;;;;4926853;28;87136;-89
2022/01/26 19:14:36;;;;;;;19.92;13.60;;;21.60;53.50;;;;;;4928106;28;87367;-83
2022/01/26 19:17:08;;;;;;;;;;;21.60;53.60;;;;;;4929077;28;87602;-83
2022/01/26 19:25:40;;;;;;;19.30;12.70;;;21.70;53.70;;;;;;4927825;28;87155;-81
2022/01/26 19:28:10;;;;;;;19.20;13.00;;;21.70;53.70;;;;;;4922124;28;88762;-81
2022/01/26 19:54:19;;;;;;;17.90;11.13;;;21.70;53.70;;;;;;4931218;28;87535;-85
2022/01/26 19:56:44;;;;;;;21.00;11.77;;;21.70;54.40;;;;;;4931987;28;87733;-86
2022/01/26 19:59:10;;;;;;;21.30;13.55;;;21.70;54.40;;;;;;4930827;28;87747;-81
2022/01/26 20:01:35;;;;;;;19.63;13.05;;;21.70;53.40;;;;;;4931302;28;87773;-84
2022/01/26 20:04:01;;;;;;;18.10;11.90;;;21.70;53.40;;;;;;4931465;28;87110;-82